createdAt,value
2019-05-09T00:00:24.543Z,99322.59
2019-05-09T00:02:50.890Z,99324.13
2019-05-09T00:05:17.212Z,99323.33
2019-05-09T00:07:44.016Z,99316.09
2019-05-09T00:10:11.427Z,99320.97
2019-05-09T00:12:37.713Z,99311.97
2019-05-09T00:15:04.798Z,99308.68
2019-05-09T00:17:31.111Z,99316.09
2019-05-09T00:19:59.199Z,99310.70
2019-05-09T00:22:25.371Z,99313.42
2019-05-09T00:24:53.789Z,99315.84
2019-05-09T00:27:19.684Z,99305.64
2019-05-09T00:29:47.747Z,99305.31
2019-05-09T00:32:18.383Z,99309.64
2019-05-09T00:34:58.167Z,99308.45
2019-05-09T00:37:43.199Z,99310.27
2019-05-09T00:40:09.697Z,99309.27
2019-05-09T00:42:35.980Z,99311.53
2019-05-09T00:45:06.674Z,99312.91
2019-05-09T00:47:33.038Z,99309.34
2019-05-09T00:49:59.224Z,99307.58
2019-05-09T00:52:25.545Z,99302.42
2019-05-09T00:54:53.147Z,99302.97
2019-05-09T00:57:34.362Z,99303.94
2019-05-09T01:00:04.901Z,99307.94
2019-05-09T01:02:31.063Z,99300.55
2019-05-09T01:04:57.303Z,99303.30
2019-05-09T01:07:23.555Z,99306.33
2019-05-09T01:09:49.846Z,99297.73
2019-05-09T01:12:16.062Z,99298.25
2019-05-09T01:14:43.268Z,99291.83
2019-05-09T01:17:09.629Z,99290.63
2019-05-09T01:19:35.829Z,99287.80
2019-05-09T01:22:03.750Z,99290.97
2019-05-09T01:24:30.070Z,99284.27
2019-05-09T01:26:56.299Z,99283.47
2019-05-09T01:29:23.105Z,99288.47
2019-05-09T01:31:49.428Z,99290.12
2019-05-09T01:34:20.461Z,99278.94
2019-05-09T01:37:05.808Z,99281.80
2019-05-09T01:39:33.781Z,99277.80
2019-05-09T01:42:00.024Z,99274.97
2019-05-09T01:44:27.584Z,99271.11
2019-05-09T01:46:54.148Z,99277.47
2019-05-09T01:49:20.454Z,99275.92
2019-05-09T01:51:46.636Z,99278.30
2019-05-09T01:54:14.337Z,99279.39
2019-05-09T01:56:40.526Z,99282.22
2019-05-09T01:59:06.685Z,99276.30
2019-05-09T02:01:34.400Z,99270.23
2019-05-09T02:04:00.763Z,99267.06
2019-05-09T02:06:28.084Z,99267.25
2019-05-09T02:08:54.760Z,99264.38
2019-05-09T02:11:21.035Z,99263.73
2019-05-09T02:13:47.214Z,99257.88
2019-05-09T02:16:15.323Z,99254.80
2019-05-09T02:18:49.204Z,99255.14
2019-05-09T02:21:15.388Z,99257.45
2019-05-09T02:23:43.179Z,99255.33
2019-05-09T02:26:09.686Z,99257.04
2019-05-09T02:28:35.842Z,99258.31
2019-05-09T02:31:05.189Z,99254.99
2019-05-09T02:33:30.245Z,99262.11
2019-05-09T02:35:58.292Z,99268.71
2019-05-09T02:38:24.598Z,99268.54
2019-05-09T02:40:50.782Z,99267.41
2019-05-09T02:43:18.629Z,99259.41
2019-05-09T02:45:52.834Z,99264.44
2019-05-09T02:48:18.680Z,99269.20
2019-05-09T02:50:48.240Z,99266.79
2019-05-09T02:53:13.183Z,99263.72
2019-05-09T02:55:39.354Z,99259.00
2019-05-09T02:58:08.283Z,99262.92
2019-05-09T03:00:39.490Z,99268.80
2019-05-09T03:03:09.666Z,99262.57
2019-05-09T03:05:38.297Z,99258.89
2019-05-09T03:08:04.113Z,99257.66
2019-05-09T03:10:30.277Z,99257.64
2019-05-09T03:12:59.412Z,99254.41
2019-05-09T03:15:24.877Z,99257.48
2019-05-09T03:17:51.062Z,99259.06
2019-05-09T03:20:25.151Z,99252.88
2019-05-09T03:22:51.341Z,99258.92
2019-05-09T03:25:19.137Z,99252.28
2019-05-09T03:27:59.462Z,99255.30
2019-05-09T03:30:29.087Z,99238.55
2019-05-09T03:32:59.417Z,99230.41
2019-05-09T03:35:23.745Z,99229.25
2019-05-09T03:38:04.973Z,99221.16
2019-05-09T03:40:32.172Z,99223.91
2019-05-09T03:42:58.473Z,99220.77
2019-05-09T03:45:24.648Z,99217.27
2019-05-09T03:47:52.762Z,99218.45
2019-05-09T03:50:18.962Z,99222.13
2019-05-09T03:52:45.125Z,99218.62
2019-05-09T03:55:13.544Z,99205.05
2019-05-09T03:57:41.606Z,99203.54
2019-05-09T04:00:09.180Z,99205.83
2019-05-09T04:02:35.382Z,99203.41
2019-05-09T04:05:01.551Z,99198.53
2019-05-09T04:07:29.716Z,99196.91
2019-05-09T04:09:58.386Z,99192.16
2019-05-09T04:12:24.008Z,99196.45
2019-05-09T04:14:50.159Z,99188.91
2019-05-09T04:17:18.127Z,99184.38
2019-05-09T04:19:44.743Z,99186.94
2019-05-09T04:22:10.903Z,99175.44
2019-05-09T04:24:38.337Z,99175.58
2019-05-09T04:27:07.796Z,99179.63
2019-05-09T04:29:34.157Z,99178.45
2019-05-09T04:32:00.448Z,99166.67
2019-05-09T04:34:27.574Z,99163.16
2019-05-09T04:36:54.079Z,99174.25
2019-05-09T04:39:23.661Z,99179.32
2019-05-09T04:41:48.843Z,99175.31
2019-05-09T04:44:20.908Z,99168.98
2019-05-09T04:46:45.232Z,99164.03
2019-05-09T04:49:11.493Z,99175.50
2019-05-09T04:51:39.341Z,99166.85
2019-05-09T04:54:07.324Z,99168.40
2019-05-09T04:56:38.039Z,99164.79
2019-05-09T04:59:03.839Z,99165.61
2019-05-09T05:01:38.927Z,99166.08
2019-05-09T05:04:07.735Z,99162.08
2019-05-09T05:06:34.180Z,99154.19
2019-05-09T05:09:00.366Z,99151.46
2019-05-09T05:11:28.025Z,99155.15
2019-05-09T05:13:54.248Z,99157.42
2019-05-09T05:16:20.511Z,99156.73
2019-05-09T05:18:47.814Z,99155.84
2019-05-09T05:21:14.218Z,99152.10
2019-05-09T05:23:48.336Z,99153.06
2019-05-09T05:26:14.718Z,99148.42
2019-05-09T05:28:40.901Z,99157.31
2019-05-09T05:31:07.481Z,99165.84
2019-05-09T05:33:41.665Z,99170.12
2019-05-09T05:36:09.757Z,99165.02
2019-05-09T05:38:37.667Z,99145.23
2019-05-09T05:41:03.990Z,99142.69
2019-05-09T05:43:40.832Z,99131.09
2019-05-09T05:46:00.170Z,99136.99
2019-05-09T05:48:28.248Z,99127.66
2019-05-09T05:50:54.452Z,99121.92
2019-05-09T05:53:20.605Z,99132.01
2019-05-09T05:55:49.399Z,99129.72
2019-05-09T05:58:14.900Z,99125.50
2019-05-09T06:00:41.149Z,99123.15
2019-05-09T06:03:08.770Z,99131.14
2019-05-09T06:05:35.323Z,99123.20
2019-05-09T06:08:01.499Z,99124.16
2019-05-09T06:10:28.981Z,99125.60
2019-05-09T06:12:57.572Z,99123.47
2019-05-09T06:15:23.578Z,99122.67
2019-05-09T06:17:49.836Z,99125.92
2019-05-09T06:20:17.712Z,99139.84
2019-05-09T06:22:44.229Z,99126.93
2019-05-09T06:25:10.406Z,99119.81
2019-05-09T06:27:37.555Z,99128.39
2019-05-09T06:30:08.460Z,99120.28
2019-05-09T06:32:34.150Z,99121.64
2019-05-09T06:35:00.336Z,99114.25
2019-05-09T06:37:27.695Z,99105.34
2019-05-09T06:39:54.198Z,99105.44
2019-05-09T06:42:20.393Z,99105.01
2019-05-09T06:45:04.685Z,99103.48
2019-05-09T06:47:35.296Z,99093.73
2019-05-09T06:50:08.011Z,99093.75
2019-05-09T06:52:34.504Z,99094.13
2019-05-09T06:55:00.711Z,99090.62
2019-05-09T06:57:28.085Z,99092.72
2019-05-09T06:59:54.662Z,99088.64
2019-05-09T07:02:31.557Z,99080.53
2019-05-09T07:07:52.305Z,99075.63
2019-05-09T07:10:18.467Z,99072.02
2019-05-09T07:12:44.791Z,99074.55
2019-05-09T07:15:11.071Z,99072.66
2019-05-09T07:17:38.720Z,99069.82
2019-05-09T07:20:08.151Z,99066.38
2019-05-09T07:22:41.187Z,99070.31
2019-05-09T07:25:12.851Z,99068.92
2019-05-09T07:27:40.457Z,99064.66
2019-05-09T07:30:12.589Z,99066.97
2019-05-09T07:32:40.678Z,99064.20
2019-05-09T07:35:08.902Z,99065.33
2019-05-09T07:37:35.245Z,99063.09
2019-05-09T07:40:01.425Z,99061.09
2019-05-09T07:42:28.466Z,99055.28
2019-05-09T07:44:54.925Z,99050.51
2019-05-09T07:47:21.108Z,99053.97
2019-05-09T07:49:48.247Z,99046.78
2019-05-09T07:52:14.790Z,99038.22
2019-05-09T07:54:40.960Z,99041.77
2019-05-09T07:57:08.572Z,99045.67
2019-05-09T07:59:34.958Z,99037.89
2019-05-09T08:02:01.228Z,99043.48
2019-05-09T08:04:28.604Z,99041.83
2019-05-09T08:06:57.502Z,99040.39
2019-05-09T08:09:23.200Z,99038.22
2019-05-09T08:11:49.373Z,99036.05
2019-05-09T08:14:17.635Z,99033.87
2019-05-09T08:16:43.671Z,99037.38
2019-05-09T08:19:11.198Z,99049.62
2019-05-09T08:21:38.282Z,99028.69
2019-05-09T08:24:04.788Z,99023.84
2019-05-09T08:26:31.257Z,99020.72
2019-05-09T08:28:58.392Z,99016.77
2019-05-09T08:31:24.881Z,99010.79
2019-05-09T08:33:51.054Z,99012.75
2019-05-09T08:36:18.067Z,99015.95
2019-05-09T08:38:47.608Z,99008.05
2019-05-09T08:41:14.425Z,99002.41
2019-05-09T08:43:40.733Z,98994.67
2019-05-09T08:46:07.902Z,98993.98
2019-05-09T08:48:34.406Z,98986.77
2019-05-09T08:51:02.516Z,98983.73
2019-05-09T08:53:28.693Z,98972.77
2019-05-09T08:55:54.978Z,98955.55
2019-05-09T08:58:21.212Z,98952.38
2019-05-09T09:00:49.011Z,98949.21
2019-05-09T09:03:15.533Z,98947.85
2019-05-09T09:05:43.673Z,98945.09
2019-05-09T09:08:09.830Z,98943.19
2019-05-09T09:10:38.498Z,98926.95
2019-05-09T09:13:04.234Z,98926.11
2019-05-09T09:15:56.139Z,98923.09
2019-05-09T09:17:58.571Z,98918.05
2019-05-09T09:20:24.801Z,98916.28
2019-05-09T09:22:50.990Z,98912.45
2019-05-09T09:25:18.447Z,98911.69
2019-05-09T09:27:50.178Z,98913.88
2019-05-09T09:30:20.222Z,98915.86
2019-05-09T09:32:41.242Z,98917.89
2019-05-09T09:35:09.257Z,98911.94
2019-05-09T09:37:47.719Z,98910.80
2019-05-09T09:40:08.646Z,98903.07
2019-05-09T09:42:34.944Z,98906.45
2019-05-09T09:45:01.109Z,98909.77
2019-05-09T09:47:28.604Z,98920.91
2019-05-09T09:49:55.894Z,98912.00
2019-05-09T09:52:23.385Z,98905.27
2019-05-09T09:54:49.562Z,98901.30
2019-05-09T09:57:18.819Z,98899.05
2019-05-09T09:59:48.353Z,98904.52
2019-05-09T10:02:15.781Z,98898.01
2019-05-09T10:04:41.983Z,98892.83
2019-05-09T10:07:08.913Z,98884.83
2019-05-09T10:09:35.533Z,98889.17
2019-05-09T10:12:01.940Z,98892.16
2019-05-09T10:14:30.061Z,98882.28
2019-05-09T10:19:54.184Z,98878.08
2019-05-09T10:22:25.026Z,98876.48
2019-05-09T10:24:50.368Z,98875.66
2019-05-09T10:27:19.750Z,98862.38
2019-05-09T10:29:47.963Z,98856.25
2019-05-09T10:32:18.251Z,98856.37
2019-05-09T10:34:44.244Z,98868.25
2019-05-09T10:37:10.619Z,98867.95
2019-05-09T10:39:43.584Z,98859.30
2019-05-09T10:42:28.646Z,98847.12
2019-05-09T10:45:07.433Z,98832.70
2019-05-09T10:47:34.872Z,98835.71
2019-05-09T10:50:01.040Z,98841.19
2019-05-09T10:52:28.339Z,98836.05
2019-05-09T10:54:54.936Z,98827.84
2019-05-09T10:57:21.131Z,98832.45
2019-05-09T10:59:48.258Z,98828.17
2019-05-09T11:02:17.383Z,98829.91
2019-05-09T11:04:47.024Z,98830.75
2019-05-09T11:07:19.163Z,98831.03
2019-05-09T11:09:47.874Z,98833.84
2019-05-09T11:12:13.473Z,98817.77
2019-05-09T11:14:39.687Z,98822.16
2019-05-09T11:17:15.898Z,98812.40
2019-05-09T11:19:34.980Z,98819.81
2019-05-09T11:22:01.161Z,98813.38
2019-05-09T11:24:41.144Z,98804.03
2019-05-09T11:26:55.720Z,98806.13
2019-05-09T11:29:21.906Z,98801.21
2019-05-09T11:31:48.116Z,98800.77
2019-05-09T11:34:14.293Z,98793.82
2019-05-09T11:36:40.471Z,98795.83
2019-05-09T11:39:10.727Z,98802.03
2019-05-09T11:41:38.155Z,98804.59
2019-05-09T11:44:03.432Z,98798.22
2019-05-09T11:46:29.648Z,98796.13
2019-05-09T11:48:57.937Z,98802.80
2019-05-09T11:51:23.891Z,98790.52
2019-05-09T11:53:50.103Z,98800.70
2019-05-09T11:56:18.055Z,98789.48
2019-05-09T11:58:44.662Z,98792.34
2019-05-09T12:01:10.971Z,98789.75
2019-05-09T12:03:38.920Z,98789.94
2019-05-09T12:06:07.795Z,98783.81
2019-05-09T12:08:33.517Z,98786.38
2019-05-09T12:10:59.706Z,98779.20
2019-05-09T12:13:25.869Z,98778.92
2019-05-09T12:15:52.088Z,98778.73
2019-05-09T12:18:18.380Z,98777.09
2019-05-09T12:20:44.557Z,98773.45
2019-05-09T12:23:10.873Z,98767.19
2019-05-09T12:25:38.603Z,98764.48
2019-05-09T12:28:07.672Z,98770.45
2019-05-09T12:30:33.244Z,98761.91
2019-05-09T12:32:59.497Z,98757.32
2019-05-09T12:35:25.654Z,98745.79
2019-05-09T12:37:51.864Z,98756.83
2019-05-09T12:40:20.157Z,98753.80
2019-05-09T12:42:46.209Z,98744.77
2019-05-09T12:45:12.514Z,98740.55
2019-05-09T12:47:39.690Z,98738.30
2019-05-09T12:50:08.679Z,98723.79
2019-05-09T12:52:35.064Z,98716.72
2019-05-09T12:55:01.238Z,98716.16
2019-05-09T12:57:28.911Z,98714.55
2019-05-09T12:59:55.563Z,98695.73
2019-05-09T13:02:21.809Z,98701.05
2019-05-09T13:04:48.115Z,98689.02
2019-05-09T13:07:14.315Z,98690.28
2019-05-09T13:09:40.479Z,98688.06
2019-05-09T13:12:08.597Z,98685.12
2019-05-09T13:14:34.802Z,98679.17
2019-05-09T13:17:19.655Z,98676.11
2019-05-09T13:19:49.793Z,98674.95
2019-05-09T13:22:18.333Z,98669.47
2019-05-09T13:24:44.023Z,98674.61
2019-05-09T13:27:10.331Z,98677.57
2019-05-09T13:29:39.678Z,98661.30
2019-05-09T13:32:05.832Z,98665.64
2019-05-09T13:34:32.038Z,98661.80
2019-05-09T13:36:59.055Z,98660.97
2019-05-09T13:39:27.789Z,98650.77
2019-05-09T13:41:53.728Z,98653.02
2019-05-09T13:44:19.918Z,98652.05
2019-05-09T13:46:48.595Z,98649.38
2019-05-09T13:49:15.728Z,98641.34
2019-05-09T13:51:51.005Z,98644.19
2019-05-09T13:54:12.301Z,98631.77
2019-05-09T13:56:38.592Z,98633.75
2019-05-09T13:59:04.758Z,98635.13
2019-05-09T14:01:34.041Z,98630.95
2019-05-09T14:04:00.242Z,98644.28
2019-05-09T14:06:27.724Z,98636.22
2019-05-09T14:08:54.288Z,98631.86
2019-05-09T14:11:20.479Z,98631.41
2019-05-09T14:13:48.830Z,98629.53
2019-05-09T14:16:21.548Z,98626.16
2019-05-09T14:18:42.987Z,98626.93
2019-05-09T14:21:09.290Z,98631.90
2019-05-09T14:23:48.388Z,98612.06
2019-05-09T14:26:09.141Z,98608.48
2019-05-09T14:28:34.718Z,98614.61
2019-05-09T14:31:00.872Z,98614.86
2019-05-09T14:33:29.611Z,98617.06
2019-05-09T14:35:59.611Z,98620.49
2019-05-09T14:38:25.790Z,98622.13
2019-05-09T14:40:51.967Z,98618.34
2019-05-09T14:43:21.343Z,98615.09
2019-05-09T14:45:48.379Z,98609.25
2019-05-09T14:48:14.891Z,98606.47
2019-05-09T14:50:41.059Z,98610.17
2019-05-09T14:53:08.638Z,98601.16
2019-05-09T14:55:35.125Z,98595.95
2019-05-09T14:58:01.325Z,98600.38
2019-05-09T15:00:27.490Z,98609.08
2019-05-09T15:02:53.687Z,98604.88
2019-05-09T15:05:19.872Z,98610.80
2019-05-09T15:07:47.630Z,98609.83
2019-05-09T15:10:14.100Z,98604.98
2019-05-09T15:12:41.798Z,98596.91
2019-05-09T15:15:08.792Z,98601.05
2019-05-09T15:17:35.799Z,98599.21
2019-05-09T15:20:03.457Z,98608.55
2019-05-09T15:22:29.686Z,98603.52
2019-05-09T15:24:55.880Z,98606.06
2019-05-09T15:27:22.045Z,98613.04
2019-05-09T15:29:48.727Z,98609.61
2019-05-09T15:32:15.235Z,98608.23
2019-05-09T15:34:41.437Z,98600.60
2019-05-09T15:37:08.819Z,98607.19
2019-05-09T15:39:37.959Z,98596.80
2019-05-09T15:42:07.387Z,98601.42
2019-05-09T15:44:33.545Z,98602.31
2019-05-09T15:47:01.697Z,98607.53
2019-05-09T15:49:28.574Z,98599.52
2019-05-09T15:51:55.059Z,98604.38
2019-05-09T15:54:21.264Z,98607.64
2019-05-09T15:56:57.869Z,98609.91
2019-05-09T15:59:23.779Z,98610.06
2019-05-09T16:01:50.027Z,98602.73
2019-05-09T16:04:17.678Z,98609.28
2019-05-09T16:06:49.459Z,98607.37
2019-05-09T16:09:13.558Z,98601.70
2019-05-09T16:11:39.741Z,98604.92
2019-05-09T16:14:07.603Z,98611.55
2019-05-09T16:16:35.764Z,98609.94
2019-05-09T16:19:03.756Z,98609.05
2019-05-09T16:21:29.985Z,98603.27
2019-05-09T16:23:59.075Z,98607.08
2019-05-09T16:26:24.483Z,98610.20
2019-05-09T16:28:50.693Z,98609.06
2019-05-09T16:31:16.899Z,98605.02
2019-05-09T16:33:43.151Z,98603.44
2019-05-09T16:36:09.375Z,98596.13
2019-05-09T16:38:45.061Z,98599.52
2019-05-09T16:41:07.432Z,98599.64
2019-05-09T16:43:33.697Z,98599.68
2019-05-09T16:45:59.996Z,98602.37
2019-05-09T16:48:27.716Z,98600.88
2019-05-09T16:51:03.144Z,98601.91
2019-05-09T16:53:25.154Z,98599.15
2019-05-09T16:55:51.412Z,98597.08
2019-05-09T16:58:18.542Z,98608.75
2019-05-09T17:00:48.586Z,98610.06
2019-05-09T17:03:14.759Z,98614.64
2019-05-09T17:05:40.963Z,98620.66
2019-05-09T17:08:08.200Z,98619.36
2019-05-09T17:10:34.924Z,98619.60
2019-05-09T17:13:01.144Z,98619.23
2019-05-09T17:15:29.272Z,98618.75
2019-05-09T17:17:55.461Z,98619.53
2019-05-09T17:20:23.599Z,98627.45
2019-05-09T17:23:14.440Z,98631.64
2019-05-09T17:25:38.484Z,98631.39
2019-05-09T17:28:06.796Z,98631.25
2019-05-09T17:30:33.250Z,98637.13
2019-05-09T17:33:03.498Z,98640.00
2019-05-09T17:35:32.022Z,98644.25
2019-05-09T17:37:58.392Z,98650.70
2019-05-09T17:40:28.150Z,98646.73
2019-05-09T17:42:54.651Z,98648.11
2019-05-09T17:45:20.831Z,98657.05
2019-05-09T17:47:48.669Z,98652.56
2019-05-09T17:50:14.844Z,98665.91
2019-05-09T17:52:41.227Z,98665.79
2019-05-09T17:55:07.522Z,98671.72
2019-05-09T17:57:38.607Z,98675.62
2019-05-09T18:00:08.151Z,98674.96
2019-05-09T18:02:34.444Z,98684.11
2019-05-09T18:05:00.597Z,98691.73
2019-05-09T18:07:28.010Z,98690.48
2019-05-09T18:09:54.659Z,98690.18
2019-05-09T18:12:20.846Z,98692.34
2019-05-09T18:14:47.651Z,98690.27
2019-05-09T18:17:13.961Z,98697.98
2019-05-09T18:19:45.061Z,98701.70
2019-05-09T18:22:14.126Z,98697.22
2019-05-09T18:24:40.324Z,98698.27
2019-05-09T18:27:07.751Z,98705.52
2019-05-09T18:29:34.032Z,98707.89
2019-05-09T18:32:19.191Z,98708.08
2019-05-09T18:34:45.450Z,98707.55
2019-05-09T18:37:11.748Z,98713.56
2019-05-09T18:39:37.952Z,98717.50
2019-05-09T18:42:04.281Z,98713.58
2019-05-09T18:44:30.459Z,98718.20
2019-05-09T18:46:57.661Z,98721.38
2019-05-09T18:49:24.214Z,98731.80
2019-05-09T18:52:02.789Z,98719.70
2019-05-09T18:54:18.741Z,98729.75
2019-05-09T18:56:45.005Z,98733.27
2019-05-09T18:59:11.222Z,98736.80
2019-05-09T19:01:37.385Z,98731.75
2019-05-09T19:04:03.547Z,98726.63
2019-05-09T19:06:29.727Z,98731.94
2019-05-09T19:08:55.940Z,98723.25
2019-05-09T19:11:22.202Z,98720.66
2019-05-09T19:13:48.375Z,98726.71
2019-05-09T19:16:16.517Z,98721.03
2019-05-09T19:18:44.575Z,98720.80
2019-05-09T19:21:15.313Z,98716.28
2019-05-09T19:23:41.532Z,98716.26
2019-05-09T19:26:09.594Z,98712.53
2019-05-09T19:28:35.826Z,98715.14
2019-05-09T19:31:02.149Z,98717.12
2019-05-09T19:33:30.301Z,98710.44
2019-05-09T19:35:56.618Z,98716.62
2019-05-09T19:38:22.804Z,98711.88
2019-05-09T19:40:48.987Z,98712.42
2019-05-09T19:43:15.296Z,98723.16
2019-05-09T19:45:41.503Z,98729.64
2019-05-09T19:48:07.689Z,98722.80
2019-05-09T19:50:33.848Z,98720.82
2019-05-09T19:53:00.051Z,98722.97
2019-05-09T19:55:26.267Z,98724.04
2019-05-09T19:57:52.509Z,98722.95
2019-05-09T20:00:19.095Z,98717.82
2019-05-09T20:02:45.376Z,98707.41
2019-05-09T20:05:11.570Z,98702.48
2019-05-09T20:07:37.907Z,98708.52
2019-05-09T20:10:09.850Z,98708.40
2019-05-09T20:12:54.723Z,98705.09
2019-05-09T20:15:22.289Z,98703.58
2019-05-09T20:17:48.448Z,98707.70
2019-05-09T20:20:14.653Z,98705.51
2019-05-09T20:22:52.006Z,98711.56
2019-05-09T20:25:09.481Z,98714.13
2019-05-09T20:27:35.668Z,98714.91
2019-05-09T20:30:03.590Z,98708.58
2019-05-09T20:32:30.045Z,98703.72
2019-05-09T20:34:56.221Z,98696.00
2019-05-09T20:37:22.411Z,98705.13
2019-05-09T20:39:48.645Z,98706.92
2019-05-09T20:42:14.932Z,98709.44
2019-05-09T20:44:41.107Z,98705.03
2019-05-09T20:47:07.261Z,98705.41
2019-05-09T20:49:33.461Z,98698.59
2019-05-09T20:51:59.640Z,98698.88
2019-05-09T20:54:25.892Z,98694.78
2019-05-09T20:56:52.120Z,98691.07
2019-05-09T20:59:18.257Z,98693.34
2019-05-09T21:01:44.410Z,98694.30
2019-05-09T21:04:10.628Z,98696.14
2019-05-09T21:06:36.800Z,98701.14
2019-05-09T21:09:05.557Z,98700.05
2019-05-09T21:11:31.745Z,98704.34
2019-05-09T21:13:57.915Z,98696.95
2019-05-09T21:16:24.163Z,98702.82
2019-05-09T21:18:50.375Z,98696.13
2019-05-09T21:21:16.559Z,98704.34
2019-05-09T21:23:42.721Z,98706.15
2019-05-09T21:26:08.916Z,98705.67
2019-05-09T21:28:35.099Z,98704.98
2019-05-09T21:31:01.326Z,98709.69
2019-05-09T21:33:27.629Z,98713.91
2019-05-09T21:35:53.810Z,98715.62
2019-05-09T21:38:19.955Z,98710.72
2019-05-09T21:40:46.166Z,98699.52
2019-05-09T21:43:12.333Z,98697.05
2019-05-09T21:45:38.508Z,98700.34
2019-05-09T21:48:04.707Z,98700.95
2019-05-09T21:50:30.856Z,98698.20
2019-05-09T21:52:57.335Z,98698.68
2019-05-09T21:55:23.516Z,98705.06
2019-05-09T21:57:49.695Z,98710.45
2019-05-09T22:00:21.376Z,98710.03
2019-05-09T22:02:47.583Z,98704.73
2019-05-09T22:05:13.744Z,98701.39
2019-05-09T22:07:39.891Z,98704.75
2019-05-09T22:10:06.643Z,98707.02
2019-05-09T22:12:32.868Z,98720.91
2019-05-09T22:14:59.021Z,98710.80
2019-05-09T22:17:29.973Z,98684.77
2019-05-09T22:19:56.157Z,98678.28
2019-05-09T22:22:22.310Z,98680.99
2019-05-09T22:24:48.497Z,98679.48
2019-05-09T22:27:14.676Z,98684.47
2019-05-09T22:29:40.845Z,98677.71
2019-05-09T22:32:07.192Z,98674.44
2019-05-09T22:34:33.359Z,98674.44
2019-05-09T22:36:59.516Z,98671.00
2019-05-09T22:39:25.713Z,98663.22
2019-05-09T22:41:51.884Z,98660.98
2019-05-09T22:44:18.052Z,98661.98
2019-05-09T22:46:44.233Z,98665.91
2019-05-09T22:49:10.384Z,98653.48
2019-05-09T22:51:36.568Z,98652.80
2019-05-09T22:54:12.319Z,98649.22
2019-05-09T22:56:31.031Z,98651.63
2019-05-09T22:58:57.304Z,98646.90
2019-05-09T23:01:23.600Z,98646.52
2019-05-09T23:03:49.874Z,98641.88
2019-05-09T23:06:16.051Z,98641.49
2019-05-09T23:08:42.349Z,98646.06
2019-05-09T23:11:08.500Z,98640.27
2019-05-09T23:13:36.573Z,98640.27
2019-05-09T23:16:02.854Z,98632.20
2019-05-09T23:18:29.020Z,98623.13
2019-05-09T23:20:55.695Z,98626.44
2019-05-09T23:23:38.643Z,98627.39
2019-05-09T23:26:04.917Z,98628.18
2019-05-09T23:28:31.191Z,98628.20
2019-05-09T23:30:59.285Z,98620.38
2019-05-09T23:33:27.706Z,98621.91
2019-05-09T23:35:53.865Z,98606.19
2019-05-09T23:38:20.185Z,98609.52
2019-05-09T23:40:46.328Z,98607.17
2019-05-09T23:43:12.509Z,98597.27
2019-05-09T23:45:38.796Z,98594.55
2019-05-09T23:48:04.953Z,98597.89
2019-05-09T23:50:31.126Z,98603.83
2019-05-09T23:52:57.322Z,98601.84
2019-05-09T23:55:42.095Z,98603.91
2019-05-09T23:58:26.491Z,98596.41
